Time;durP1;ratioP1;P1;durP2;ratioP2;P2;SDS_P1;SDS_P2;PMS_P1;PMS_P2;Temp;Humidity;BMP_temperature;BMP_pressure;BME280_temperature;BME280_humidity;BME280_pressure;Samples;Min_cycle;Max_cycle;Signal;HPM_P1;HPM_P2
2021/11/18 00:01:17;;;;;;;9.20;4.55;;;7.80;75.40;;;;;;4955930;29;20210;-79
2021/11/18 00:03:46;;;;;;;5.88;4.45;;;7.70;77.30;;;;;;4955835;29;20209;-79
2021/11/18 00:06:16;;;;;;;5.50;4.40;;;7.60;80.60;;;;;;4957158;29;20213;-79
2021/11/18 00:08:43;;;;;;;5.85;4.60;;;7.60;82.70;;;;;;4956733;29;20257;-79
2021/11/18 00:11:12;;;;;;;7.28;4.97;;;7.60;83.60;;;;;;4956848;29;20230;-78
2021/11/18 00:13:42;;;;;;;6.22;4.70;;;7.50;85.20;;;;;;4963582;28;20396;-80
2021/11/18 00:16:10;;;;;;;5.93;4.72;;;7.40;86.90;;;;;;4964908;28;20293;-81
2021/11/18 00:18:39;;;;;;;6.88;5.30;;;7.30;87.50;;;;;;4955979;29;20797;-78
2021/11/18 00:21:08;;;;;;;9.95;6.05;;;7.30;89.50;;;;;;4955584;28;20202;-79
2021/11/18 00:23:39;;;;;;;8.05;5.55;;;7.20;89.40;;;;;;4956476;29;20256;-79
2021/11/18 00:26:07;;;;;;;9.27;6.10;;;7.20;90.60;;;;;;4956885;29;20249;-79
2021/11/18 00:28:35;;;;;;;10.35;6.50;;;7.30;90.70;;;;;;4955842;29;20270;-78
2021/11/18 00:31:03;;;;;;;7.80;5.78;;;7.30;91.20;;;;;;4955625;28;20233;-79
2021/11/18 00:33:30;;;;;;;12.05;5.38;;;7.30;91.60;;;;;;4955775;29;20214;-80
2021/11/18 00:35:56;;;;;;;11.45;6.43;;;7.20;92.20;;;;;;4956256;28;20210;-79
2021/11/18 00:38:23;;;;;;;8.63;6.10;;;7.20;92.30;;;;;;4956213;28;20225;-79
2021/11/18 00:40:54;;;;;;;9.52;7.10;;;7.20;92.50;;;;;;4956708;28;20274;-77
2021/11/18 00:43:22;;;;;;;11.10;6.25;;;7.20;92.50;;;;;;4955363;29;20256;-79
2021/11/18 00:45:49;;;;;;;8.95;5.80;;;7.20;92.50;;;;;;4956882;29;20745;-80
2021/11/18 00:48:17;;;;;;;10.25;6.35;;;7.20;92.50;;;;;;4956090;29;20269;-80
2021/11/18 00:50:47;;;;;;;8.40;6.65;;;7.20;92.30;;;;;;4956356;29;20236;-79
2021/11/18 00:53:14;;;;;;;8.73;6.63;;;7.20;92.00;;;;;;4956662;29;20621;-81
2021/11/18 00:55:41;;;;;;;9.82;7.28;;;7.20;92.00;;;;;;4956784;29;20264;-80
2021/11/18 00:58:10;;;;;;;10.20;7.25;;;7.30;91.80;;;;;;4955969;29;20670;-78
2021/11/18 01:00:40;;;;;;;11.00;7.38;;;7.20;91.50;;;;;;4955423;29;20496;-79
2021/11/18 01:03:07;;;;;;;11.85;7.18;;;7.30;91.40;;;;;;4958613;28;20268;-79
2021/11/18 01:05:37;;;;;;;9.50;7.70;;;7.30;91.30;;;;;;4967595;29;20281;-79
2021/11/18 01:08:06;;;;;;;9.70;6.68;;;7.40;91.20;;;;;;4966983;28;20268;-79
2021/11/18 01:10:36;;;;;;;13.15;7.97;;;7.40;90.90;;;;;;4958129;28;20232;-80
2021/11/18 01:13:04;;;;;;;10.90;7.50;;;7.40;90.80;;;;;;4957989;29;20212;-79
2021/11/18 01:15:34;;;;;;;11.55;8.45;;;7.40;90.80;;;;;;4957405;29;20505;-79
2021/11/18 01:18:01;;;;;;;10.20;8.07;;;7.40;90.70;;;;;;4959077;28;20273;-79
2021/11/18 01:20:29;;;;;;;10.07;7.63;;;7.40;90.70;;;;;;4957619;29;20218;-80
2021/11/18 01:22:57;;;;;;;11.15;7.45;;;7.40;90.50;;;;;;4962146;28;20260;-80
2021/11/18 01:25:25;;;;;;;11.93;7.88;;;7.40;90.70;;;;;;4957630;29;20206;-79
2021/11/18 01:27:51;;;;;;;10.60;7.88;;;7.50;90.70;;;;;;4956377;29;20612;-79
2021/11/18 01:30:22;;;;;;;8.95;7.13;;;7.50;90.70;;;;;;5026653;23;20300;-80
2021/11/18 01:32:51;;;;;;;12.27;8.52;;;7.50;90.30;;;;;;5014536;28;20224;-79
2021/11/18 01:35:20;;;;;;;13.98;8.25;;;7.50;90.00;;;;;;5017038;28;20216;-80
2021/11/18 04:01:27;;;;;;;11.13;8.02;;;7.40;83.50;;;;;;1810554;23;20545;-80
2021/11/18 04:03:54;;;;;;;10.32;7.72;;;7.40;83.50;;;;;;5028344;28;20223;-78
2021/11/18 04:06:27;;;;;;;10.48;7.93;;;7.40;83.50;;;;;;5029435;28;20246;-79
2021/11/18 04:08:54;;;;;;;9.05;7.63;;;7.40;83.50;;;;;;5032443;28;20231;-78
2021/11/18 04:11:22;;;;;;;8.77;7.03;;;7.50;83.50;;;;;;5028191;28;20634;-79
2021/11/18 04:13:49;;;;;;;10.38;7.85;;;7.50;83.10;;;;;;5032971;23;20231;-80
2021/11/18 04:16:16;;;;;;;9.07;7.10;;;7.50;83.50;;;;;;5022746;28;20558;-80
2021/11/18 04:18:44;;;;;;;11.15;8.02;;;7.60;82.70;;;;;;5022801;28;20562;-81
2021/11/18 04:21:11;;;;;;;9.77;7.00;;;7.50;82.90;;;;;;5023376;28;20279;-81
2021/11/18 04:23:38;;;;;;;8.55;6.43;;;7.60;82.80;;;;;;5023988;28;20636;-81
2021/11/18 04:26:05;;;;;;;11.95;8.05;;;7.60;82.70;;;;;;5022926;28;20204;-81
2021/11/18 04:28:33;;;;;;;7.63;6.82;;;7.60;82.20;;;;;;5022449;28;20294;-81
2021/11/18 04:31:04;;;;;;;9.63;7.60;;;7.60;82.10;;;;;;5022677;28;20263;-81
2021/11/18 04:33:33;;;;;;;8.50;6.55;;;7.60;82.30;;;;;;5023369;28;20231;-82
2021/11/18 04:36:02;;;;;;;10.95;7.70;;;7.50;82.50;;;;;;5027675;28;20231;-81
2021/11/18 04:38:29;;;;;;;9.32;6.70;;;7.50;82.10;;;;;;5023156;28;20211;-81
2021/11/18 04:40:58;;;;;;;10.80;7.05;;;7.50;81.90;;;;;;5019162;28;20218;-81
2021/11/18 04:43:28;;;;;;;11.63;7.15;;;7.50;82.60;;;;;;5024460;28;20777;-81
2021/11/18 04:45:55;;;;;;;9.10;6.75;;;7.50;83.00;;;;;;5028390;28;20214;-80
2021/11/18 04:48:22;;;;;;;9.25;6.70;;;7.50;83.30;;;;;;5032032;28;20239;-81
2021/11/18 04:50:50;;;;;;;11.70;7.32;;;7.50;83.50;;;;;;5028314;28;20207;-81
2021/11/18 04:53:19;;;;;;;9.57;8.10;;;7.60;83.50;;;;;;5025448;28;20232;-81
2021/11/18 04:55:47;;;;;;;9.10;7.60;;;7.60;82.90;;;;;;5021512;28;20226;-81
2021/11/18 04:58:15;;;;;;;9.00;7.25;;;7.60;83.50;;;;;;5022892;28;20271;-81
2021/11/18 05:00:46;;;;;;;8.95;6.97;;;7.50;83.50;;;;;;5023218;28;20216;-79
2021/11/18 05:03:14;;;;;;;8.48;7.35;;;7.50;83.50;;;;;;5023040;28;20318;-82
2021/11/18 05:05:42;;;;;;;8.40;6.97;;;7.50;83.60;;;;;;5023377;28;20231;-81
2021/11/18 05:08:09;;;;;;;8.88;7.05;;;7.50;83.60;;;;;;5024217;28;20231;-81
2021/11/18 05:10:38;;;;;;;10.27;7.47;;;7.50;83.50;;;;;;5023454;28;20230;-82
2021/11/18 05:13:06;;;;;;;10.82;6.95;;;7.50;83.50;;;;;;5027660;28;20251;-80
2021/11/18 05:15:35;;;;;;;9.70;7.55;;;7.60;83.30;;;;;;5028372;28;20212;-81
2021/11/18 05:18:02;;;;;;;9.52;6.82;;;7.50;83.40;;;;;;5032405;28;20215;-80
2021/11/18 05:20:29;;;;;;;11.38;7.32;;;7.50;83.50;;;;;;5035301;28;20262;-82
2021/11/18 05:22:57;;;;;;;8.98;7.43;;;7.50;83.50;;;;;;5034671;28;20223;-81
2021/11/18 05:25:28;;;;;;;8.45;6.50;;;7.50;83.50;;;;;;5030601;28;20224;-81
2021/11/18 05:27:56;;;;;;;10.38;7.00;;;7.60;82.90;;;;;;5025146;28;20235;-81
2021/11/18 05:30:28;;;;;;;8.02;6.60;;;7.60;82.60;;;;;;5025830;28;20347;-81
2021/11/18 05:32:56;;;;;;;7.35;5.88;;;7.60;81.90;;;;;;5027394;28;20231;-80
2021/11/18 05:35:25;;;;;;;10.05;6.63;;;7.60;81.70;;;;;;5027855;28;20713;-80
2021/11/18 05:37:52;;;;;;;10.05;6.95;;;7.60;82.20;;;;;;5028378;28;20216;-81
2021/11/18 05:40:20;;;;;;;8.35;5.90;;;7.50;82.10;;;;;;5034258;28;20287;-80
2021/11/18 05:42:48;;;;;;;10.73;6.85;;;7.60;82.50;;;;;;5035002;28;20227;-80
2021/11/18 05:45:17;;;;;;;8.68;6.65;;;7.60;82.00;;;;;;5034465;28;20230;-81
2021/11/18 05:47:44;;;;;;;9.27;6.97;;;7.60;82.30;;;;;;5028419;28;20212;-81
2021/11/18 05:50:13;;;;;;;8.30;6.40;;;7.60;82.70;;;;;;5025254;28;20212;-81
2021/11/18 05:52:42;;;;;;;7.00;5.70;;;7.60;82.60;;;;;;5024582;28;20247;-81
2021/11/18 05:55:11;;;;;;;6.82;5.82;;;7.60;83.00;;;;;;5025049;28;20203;-81
2021/11/18 05:57:38;;;;;;;9.98;6.80;;;7.60;82.20;;;;;;5032959;28;20183;-80
2021/11/18 06:00:09;;;;;;;7.35;6.20;;;7.70;82.40;;;;;;5037796;28;20206;-80
2021/11/18 06:02:37;;;;;;;8.80;6.25;;;7.70;81.70;;;;;;5038272;28;20238;-79
2021/11/18 06:05:05;;;;;;;12.60;6.18;;;7.70;81.30;;;;;;5037347;28;20267;-79
2021/11/18 06:07:32;;;;;;;9.45;6.43;;;7.70;80.80;;;;;;5037472;28;20244;-80
2021/11/18 06:09:59;;;;;;;6.72;5.70;;;7.70;80.90;;;;;;5025495;28;20223;-81
2021/11/18 06:12:26;;;;;;;8.95;6.72;;;7.70;81.10;;;;;;5019656;28;20480;-80
2021/11/18 06:14:53;;;;;;;9.13;5.97;;;7.60;80.80;;;;;;5038540;28;20228;-79
2021/11/18 06:17:20;;;;;;;6.78;5.97;;;7.70;81.40;;;;;;5038774;28;20199;-79
2021/11/18 06:19:48;;;;;;;7.38;6.28;;;7.70;81.30;;;;;;5038987;28;20215;-80
2021/11/18 06:22:17;;;;;;;9.90;6.40;;;7.60;80.50;;;;;;5030746;28;20233;-80
2021/11/18 06:24:44;;;;;;;8.18;6.57;;;7.60;80.80;;;;;;5012689;28;20204;-80
2021/11/18 06:27:11;;;;;;;9.07;6.70;;;7.70;80.90;;;;;;5012158;28;20647;-81
2021/11/18 06:29:38;;;;;;;7.47;5.65;;;7.70;81.00;;;;;;5010064;28;20292;-80
2021/11/18 06:32:06;;;;;;;7.50;6.35;;;7.70;81.20;;;;;;5009146;28;20229;-81
2021/11/18 06:34:34;;;;;;;9.60;6.63;;;7.70;81.10;;;;;;5008051;28;20209;-80
2021/11/18 06:37:03;;;;;;;9.85;6.70;;;7.70;81.40;;;;;;5009353;28;20235;-80
2021/11/18 06:39:32;;;;;;;8.35;6.78;;;7.70;81.00;;;;;;5024727;28;20717;-80
2021/11/18 06:41:59;;;;;;;7.32;5.85;;;7.70;81.10;;;;;;5012671;28;20204;-80
2021/11/18 06:44:25;;;;;;;13.25;6.80;;;7.70;81.00;;;;;;5025174;28;20798;-80
2021/11/18 06:46:52;;;;;;;7.00;6.25;;;7.70;81.00;;;;;;5023235;28;20215;-81
2021/11/18 06:49:19;;;;;;;11.27;7.35;;;7.70;81.20;;;;;;5012999;28;20263;-80
2021/11/18 06:51:47;;;;;;;10.30;6.40;;;7.70;80.90;;;;;;5002040;28;20299;-81
2021/11/18 06:54:17;;;;;;;8.85;6.85;;;7.70;81.00;;;;;;5016110;28;20299;-80
2021/11/18 06:56:44;;;;;;;7.90;6.75;;;7.70;81.10;;;;;;5028234;28;20215;-80
2021/11/18 06:59:12;;;;;;;9.50;7.13;;;7.70;80.70;;;;;;5023505;28;20284;-81
2021/11/18 07:01:39;;;;;;;9.65;7.22;;;7.70;82.00;;;;;;5028071;28;20223;-79
2021/11/18 07:04:08;;;;;;;9.77;7.40;;;7.70;81.40;;;;;;5028010;28;20246;-79
2021/11/18 07:06:36;;;;;;;12.18;7.50;;;7.70;81.70;;;;;;5021525;28;20211;-80
2021/11/18 07:09:04;;;;;;;13.68;7.90;;;7.80;81.90;;;;;;5026598;28;20208;-81
2021/11/18 07:11:32;;;;;;;10.35;7.15;;;7.80;80.80;;;;;;5019044;28;20232;-80
2021/11/18 07:13:59;;;;;;;12.10;6.88;;;7.80;80.10;;;;;;5021148;28;20232;-80
2021/11/18 07:16:27;;;;;;;9.35;7.05;;;7.80;79.90;;;;;;5012977;28;20205;-80
2021/11/18 07:19:04;;;;;;;9.80;7.25;;;7.80;80.00;;;;;;5019299;28;20212;-76
2021/11/18 07:21:32;;;;;;;10.02;6.90;;;7.80;80.10;;;;;;4996214;28;20212;-79
2021/11/18 07:24:02;;;;;;;10.88;7.47;;;8.00;79.80;;;;;;4993535;28;20523;-79
2021/11/18 07:26:31;;;;;;;7.95;6.68;;;8.00;78.30;;;;;;4992883;28;20212;-77
2021/11/18 07:28:59;;;;;;;11.50;7.53;;;8.00;78.20;;;;;;4992525;28;20691;-78
2021/11/18 07:31:26;;;;;;;12.00;8.00;;;8.00;77.90;;;;;;4993007;28;20243;-78
2021/11/18 07:33:53;;;;;;;10.43;7.28;;;8.00;78.00;;;;;;4991785;28;20244;-78
2021/11/18 07:36:20;;;;;;;11.77;8.60;;;8.00;77.60;;;;;;4994549;28;20256;-79
2021/11/18 07:38:47;;;;;;;11.82;8.27;;;8.10;77.90;;;;;;5009923;28;20306;-79
2021/11/18 07:41:14;;;;;;;11.05;7.10;;;8.10;77.20;;;;;;5015323;28;20204;-79
2021/11/18 07:43:44;;;;;;;14.48;6.82;;;8.20;76.80;;;;;;4997020;28;20216;-78
2021/11/18 07:46:13;;;;;;;9.18;7.45;;;8.20;76.40;;;;;;5008039;28;20303;-78
2021/11/18 07:48:41;;;;;;;10.85;6.65;;;8.20;75.80;;;;;;5008908;28;20291;-78
2021/11/18 07:51:09;;;;;;;11.48;8.30;;;8.30;75.80;;;;;;4993818;28;20303;-79
2021/11/18 07:53:36;;;;;;;11.60;7.03;;;8.30;75.80;;;;;;4998070;28;20310;-79
2021/11/18 07:56:04;;;;;;;9.85;7.68;;;8.20;75.70;;;;;;5013562;28;20207;-79
2021/11/18 07:58:31;;;;;;;9.23;7.45;;;8.20;75.70;;;;;;5013017;28;20203;-79
2021/11/18 08:00:59;;;;;;;9.07;6.88;;;8.30;75.80;;;;;;5015165;28;20211;-79
2021/11/18 08:03:30;;;;;;;9.00;7.43;;;8.30;75.50;;;;;;5014279;28;20231;-80
2021/11/18 08:05:57;;;;;;;11.32;6.90;;;8.30;75.40;;;;;;4994476;28;20554;-79
2021/11/18 08:08:24;;;;;;;10.68;7.55;;;8.30;74.90;;;;;;4999784;28;20199;-81
2021/11/18 08:10:51;;;;;;;12.13;8.32;;;8.30;74.10;;;;;;5001642;28;20205;-79
2021/11/18 08:13:18;;;;;;;8.05;7.10;;;8.30;74.80;;;;;;4993404;28;20232;-79
2021/11/18 08:15:46;;;;;;;9.45;5.72;;;8.30;74.50;;;;;;4994456;28;20201;-79
2021/11/18 08:18:16;;;;;;;9.35;7.03;;;8.40;74.30;;;;;;5005979;28;20210;-79
2021/11/18 08:20:45;;;;;;;9.73;6.22;;;8.40;74.20;;;;;;5009368;28;20216;-80
2021/11/18 08:23:11;;;;;;;10.90;7.70;;;8.50;73.60;;;;;;5008850;28;20538;-80
2021/11/18 08:25:39;;;;;;;10.38;7.20;;;8.50;73.80;;;;;;5012550;28;20278;-78
2021/11/18 08:28:08;;;;;;;10.77;7.50;;;8.60;74.00;;;;;;5015005;28;20311;-79
2021/11/18 08:30:36;;;;;;;8.60;7.10;;;8.60;73.60;;;;;;5004037;28;20204;-79
2021/11/18 08:33:06;;;;;;;9.15;6.13;;;8.70;73.70;;;;;;5030097;28;20255;-80
2021/11/18 08:35:35;;;;;;;9.52;6.90;;;8.70;73.70;;;;;;5025856;28;20196;-79
2021/11/18 08:38:06;;;;;;;10.85;8.27;;;8.80;73.60;;;;;;5015070;28;20247;-83
2021/11/18 08:40:34;;;;;;;8.35;7.13;;;8.80;72.70;;;;;;5022115;28;20267;-81
2021/11/18 08:43:01;;;;;;;11.77;7.85;;;8.80;73.40;;;;;;5018163;28;20215;-82
2021/11/18 08:45:28;;;;;;;9.25;7.80;;;8.80;72.30;;;;;;5013978;28;20205;-80
2021/11/18 08:47:55;;;;;;;12.70;7.57;;;8.70;73.00;;;;;;5013468;28;20213;-79
2021/11/18 08:50:23;;;;;;;11.43;7.72;;;8.80;73.40;;;;;;5026477;28;20208;-80
2021/11/18 08:52:51;;;;;;;13.65;7.10;;;8.90;72.70;;;;;;5006766;28;20286;-80
2021/11/18 08:55:23;;;;;;;9.82;7.07;;;9.00;72.40;;;;;;5018958;28;20204;-78
2021/11/18 08:57:52;;;;;;;9.98;7.15;;;9.00;72.10;;;;;;5022589;28;20294;-80
2021/11/18 09:00:22;;;;;;;9.63;7.40;;;9.00;71.50;;;;;;5022134;28;20266;-80
2021/11/18 09:02:49;;;;;;;10.98;7.20;;;9.10;71.10;;;;;;5022207;28;20228;-79
2021/11/18 09:05:17;;;;;;;8.10;6.50;;;9.10;69.40;;;;;;5013464;28;20204;-80
2021/11/18 09:07:44;;;;;;;9.68;7.40;;;9.20;69.50;;;;;;5014961;28;20228;-80
2021/11/18 09:10:12;;;;;;;10.48;6.93;;;9.30;69.30;;;;;;5013797;28;20343;-78
2021/11/18 09:12:41;;;;;;;10.35;7.03;;;9.20;68.40;;;;;;5014375;28;20703;-80
2021/11/18 09:15:09;;;;;;;12.20;8.38;;;9.30;68.80;;;;;;5015310;28;20310;-80
2021/11/18 09:17:37;;;;;;;11.07;8.35;;;9.40;68.80;;;;;;5012720;28;20587;-79
2021/11/18 09:20:07;;;;;;;8.10;6.88;;;9.50;68.10;;;;;;5011354;28;20205;-78
2021/11/18 09:22:34;;;;;;;7.72;6.82;;;9.60;68.20;;;;;;5003187;28;20672;-78
2021/11/18 09:25:06;;;;;;;12.95;6.63;;;9.80;68.40;;;;;;5003361;28;20207;-79
2021/11/18 09:27:37;;;;;;;9.93;7.20;;;10.00;65.80;;;;;;5014468;28;20298;-78
2021/11/18 09:30:09;;;;;;;9.43;6.68;;;10.10;63.60;;;;;;5013599;28;20200;-78
2021/11/18 09:32:36;;;;;;;9.02;6.55;;;10.10;63.20;;;;;;5013082;28;20234;-79
2021/11/18 09:35:07;;;;;;;10.57;6.55;;;10.10;64.00;;;;;;5014215;28;20240;-79
2021/11/18 09:37:34;;;;;;;8.00;6.82;;;10.30;63.40;;;;;;5013405;28;20271;-77
2021/11/18 09:40:01;;;;;;;10.23;6.55;;;10.40;63.10;;;;;;5013240;28;20214;-78
2021/11/18 09:42:37;;;;;;;8.27;6.50;;;10.60;62.70;;;;;;5013081;28;20255;-79
2021/11/18 09:45:20;;;;;;;8.13;6.70;;;10.60;60.80;;;;;;5013308;28;20279;-79
2021/11/18 09:48:36;;;;;;;7.63;6.22;;;10.50;61.60;;;;;;5013162;28;20247;-78
2021/11/18 09:51:33;;;;;;;9.55;6.50;;;10.30;62.20;;;;;;5012863;28;20196;-79
2021/11/18 09:54:36;;;;;;;9.68;6.50;;;10.20;62.40;;;;;;5012976;28;20255;-78
2021/11/18 09:57:24;;;;;;;7.78;6.20;;;10.20;63.00;;;;;;4967246;28;20215;-78
2021/11/18 10:00:07;;;;;;;9.48;7.22;;;10.30;63.40;;;;;;5019594;28;20223;-78
2021/11/18 10:03:10;;;;;;;6.72;6.00;;;10.20;63.00;;;;;;5019588;28;20258;-79
2021/11/18 10:05:59;;;;;;;7.55;5.50;;;10.10;63.00;;;;;;5036620;28;20267;-80
2021/11/18 10:08:36;;;;;;;11.07;6.63;;;10.10;63.00;;;;;;5031589;28;20231;-81
2021/11/18 10:11:19;;;;;;;7.35;5.93;;;10.20;62.80;;;;;;5033910;28;20295;-78
2021/11/18 10:14:18;;;;;;;8.45;6.38;;;10.30;62.60;;;;;;5061124;23;20288;-79
2021/11/18 10:16:50;;;;;;;8.27;5.95;;;10.40;62.40;;;;;;4998677;28;20213;-78
2021/11/18 10:19:28;;;;;;;6.45;5.57;;;10.40;61.70;;;;;;5000665;28;20177;-79
2021/11/18 10:21:58;;;;;;;10.70;5.72;;;10.50;61.20;;;;;;5000402;28;20184;-79
2021/11/18 10:24:27;;;;;;;7.28;5.70;;;10.50;60.50;;;;;;4998072;28;20235;-82
2021/11/18 10:26:58;;;;;;;7.25;5.55;;;10.50;60.20;;;;;;5000330;28;20189;-79
2021/11/18 10:29:28;;;;;;;7.20;5.60;;;10.40;60.60;;;;;;4989327;28;20236;-81
2021/11/18 10:32:00;;;;;;;6.70;5.20;;;10.40;61.00;;;;;;4985907;28;20212;-79
2021/11/18 10:34:31;;;;;;;7.30;5.38;;;10.50;60.70;;;;;;4991375;28;20764;-79
2021/11/18 10:37:05;;;;;;;5.78;4.93;;;10.50;59.10;;;;;;4993151;28;20225;-80
2021/11/18 10:39:44;;;;;;;5.60;4.65;;;10.50;59.40;;;;;;4986320;28;20244;-80
2021/11/18 10:42:21;;;;;;;6.50;5.15;;;10.60;59.30;;;;;;4994330;28;20209;-79
2021/11/18 10:44:51;;;;;;;6.68;5.32;;;10.60;59.20;;;;;;4993599;28;20281;-79
2021/11/18 10:47:22;;;;;;;7.40;5.38;;;10.70;59.30;;;;;;4983561;28;20275;-80
2021/11/18 10:49:58;;;;;;;7.00;5.25;;;10.70;59.30;;;;;;4984342;28;20209;-80
2021/11/18 10:52:33;;;;;;;7.03;5.70;;;10.80;59.50;;;;;;4984856;28;20224;-80
2021/11/18 10:55:07;;;;;;;8.15;5.72;;;10.90;58.40;;;;;;4985738;28;20603;-81
2021/11/18 10:57:36;;;;;;;10.57;7.32;;;10.80;58.20;;;;;;4995638;28;20223;-80
2021/11/18 11:00:22;;;;;;;8.13;6.15;;;10.80;58.20;;;;;;4991462;28;20689;-80
2021/11/18 11:02:50;;;;;;;8.55;6.30;;;10.60;58.10;;;;;;4982229;28;20243;-82
2021/11/18 11:05:37;;;;;;;9.45;6.80;;;10.50;58.10;;;;;;4981689;28;20213;-81
2021/11/18 11:08:22;;;;;;;10.10;6.97;;;10.60;59.20;;;;;;4980885;28;20603;-82
2021/11/18 11:10:55;;;;;;;7.43;5.72;;;10.60;59.10;;;;;;4981702;28;20247;-80
2021/11/18 11:13:36;;;;;;;8.88;6.35;;;10.60;57.70;;;;;;4982901;28;20229;-80
2021/11/18 11:16:41;;;;;;;9.25;6.28;;;10.60;58.10;;;;;;4982010;28;20198;-81
2021/11/18 11:19:16;;;;;;;7.47;5.47;;;10.70;57.10;;;;;;4932309;28;20239;-81
2021/11/18 11:21:53;;;;;;;9.00;6.93;;;10.80;56.70;;;;;;4981163;28;20295;-80
2021/11/18 11:24:54;;;;;;;11.55;6.53;;;10.80;57.00;;;;;;4981559;28;20253;-80
2021/11/18 11:27:47;;;;;;;6.75;5.40;;;10.80;56.90;;;;;;4982578;28;20193;-81
2021/11/18 11:30:22;;;;;;;12.52;6.75;;;10.90;56.60;;;;;;4982420;28;20213;-81
2021/11/18 11:32:53;;;;;;;9.50;6.00;;;10.90;55.60;;;;;;4981765;28;20235;-80
2021/11/18 11:35:36;;;;;;;8.43;6.00;;;10.90;56.30;;;;;;4983012;28;20224;-80
2021/11/18 11:38:27;;;;;;;8.00;5.97;;;10.80;56.60;;;;;;4982812;28;20219;-80
2021/11/18 11:41:15;;;;;;;8.07;6.75;;;10.80;55.90;;;;;;4982263;28;20299;-80
2021/11/18 11:43:49;;;;;;;8.68;5.70;;;10.80;56.00;;;;;;4984093;28;20728;-80
2021/11/18 11:46:30;;;;;;;8.95;6.22;;;10.80;56.10;;;;;;4984075;28;20633;-81
2021/11/18 11:49:20;;;;;;;13.50;7.18;;;10.60;57.00;;;;;;4984471;28;20276;-80
2021/11/18 11:52:00;;;;;;;11.20;7.57;;;10.70;57.20;;;;;;4983683;28;20204;-80
2021/11/18 11:55:02;;;;;;;8.82;6.50;;;10.80;56.90;;;;;;4984317;28;20223;-81
2021/11/18 11:57:42;;;;;;;10.38;6.60;;;10.70;56.60;;;;;;4983175;28;20276;-80
2021/11/18 12:00:23;;;;;;;9.80;6.30;;;10.70;57.20;;;;;;4984551;28;20296;-79
2021/11/18 12:02:57;;;;;;;8.00;6.63;;;10.80;57.00;;;;;;4983513;28;20256;-81
2021/11/18 12:05:27;;;;;;;9.82;7.07;;;10.80;56.20;;;;;;4986325;28;20207;-81
2021/11/18 12:08:00;;;;;;;9.40;6.93;;;10.80;56.80;;;;;;4988696;28;20213;-81
2021/11/18 12:10:31;;;;;;;9.02;6.45;;;10.70;57.30;;;;;;4991925;28;20194;-81
2021/11/18 12:13:07;;;;;;;8.60;7.25;;;10.60;57.00;;;;;;4989827;28;20236;-81
2021/11/18 12:15:43;;;;;;;8.82;6.95;;;10.40;57.80;;;;;;4981772;28;20209;-80
2021/11/18 12:18:23;;;;;;;14.00;8.48;;;10.30;59.00;;;;;;4981790;28;20204;-80
2021/11/18 12:20:50;;;;;;;8.10;6.35;;;10.30;59.00;;;;;;4980641;28;20224;-80
2021/11/18 12:23:20;;;;;;;13.65;7.38;;;10.40;59.10;;;;;;4982967;28;20257;-80
2021/11/18 12:26:15;;;;;;;8.48;7.15;;;10.40;58.50;;;;;;4982508;28;20209;-80
2021/11/18 12:29:03;;;;;;;10.77;7.28;;;10.30;59.00;;;;;;4982109;28;20680;-81
2021/11/18 12:31:32;;;;;;;10.10;6.57;;;10.30;59.00;;;;;;4983215;28;20197;-81
2021/11/18 12:34:12;;;;;;;9.90;6.45;;;10.30;59.00;;;;;;4981234;28;20236;-80
2021/11/18 12:37:15;;;;;;;14.50;7.65;;;10.30;59.00;;;;;;4989040;28;20193;-79
2021/11/18 12:39:51;;;;;;;11.35;7.03;;;10.40;59.10;;;;;;4993900;28;20256;-79
2021/11/18 12:42:56;;;;;;;10.93;7.35;;;10.40;59.10;;;;;;4995552;28;20212;-80
2021/11/18 12:45:45;;;;;;;8.68;6.68;;;10.50;58.90;;;;;;4977751;28;20224;-80
2021/11/18 12:48:19;;;;;;;11.35;7.95;;;10.30;57.70;;;;;;4972228;28;20228;-80
2021/11/18 12:51:15;;;;;;;14.18;8.63;;;10.40;58.90;;;;;;4981885;28;20220;-79
2021/11/18 12:53:45;;;;;;;9.82;7.45;;;10.40;58.20;;;;;;4981374;28;20233;-80
2021/11/18 12:56:29;;;;;;;16.15;9.35;;;10.30;56.90;;;;;;4981294;28;20216;-80
2021/11/18 12:59:08;;;;;;;15.25;9.18;;;10.20;57.10;;;;;;4980971;28;20300;-81
2021/11/18 13:02:04;;;;;;;11.75;7.50;;;10.20;57.20;;;;;;4982321;28;20213;-81
2021/11/18 13:04:50;;;;;;;12.90;7.95;;;10.20;57.20;;;;;;4992545;28;20272;-79
2021/11/18 13:07:45;;;;;;;15.32;8.05;;;10.30;56.70;;;;;;4996640;28;20227;-78
2021/11/18 13:10:45;;;;;;;12.85;8.65;;;10.20;57.10;;;;;;4981616;28;20201;-80
2021/11/18 13:13:40;;;;;;;12.70;7.68;;;10.30;56.80;;;;;;4982289;28;20260;-80
2021/11/18 13:16:36;;;;;;;11.18;8.70;;;10.40;56.20;;;;;;4980952;28;20281;-80
2021/11/18 13:19:22;;;;;;;13.20;8.05;;;10.30;56.10;;;;;;4981104;28;20189;-81
2021/11/18 13:22:15;;;;;;;10.15;7.85;;;10.40;56.30;;;;;;4981419;28;20217;-80
2021/11/18 13:24:51;;;;;;;11.85;8.75;;;10.30;56.00;;;;;;4969310;28;20206;-79
2021/11/18 13:27:23;;;;;;;9.65;7.68;;;10.30;56.40;;;;;;4981609;28;20216;-80
2021/11/18 13:29:54;;;;;;;11.40;8.50;;;10.20;56.30;;;;;;4982102;28;20285;-79
2021/11/18 13:32:23;;;;;;;15.45;7.75;;;10.20;56.70;;;;;;4983043;28;20292;-80
2021/11/18 13:34:59;;;;;;;10.63;7.90;;;10.20;56.80;;;;;;4985292;28;20602;-81
2021/11/18 13:37:29;;;;;;;13.38;7.60;;;10.20;56.80;;;;;;4987501;28;20548;-81
2021/11/18 13:40:02;;;;;;;11.82;8.02;;;10.20;57.30;;;;;;4992993;28;20300;-81
2021/11/18 13:42:32;;;;;;;11.43;7.95;;;10.20;57.20;;;;;;4995942;28;20229;-79
2021/11/18 13:45:12;;;;;;;14.90;8.70;;;10.30;57.10;;;;;;4996605;28;20208;-81
2021/11/18 13:47:52;;;;;;;13.30;8.32;;;10.30;56.70;;;;;;4998657;28;20225;-80
2021/11/18 13:50:25;;;;;;;13.70;8.20;;;10.30;56.90;;;;;;4997124;28;20220;-80
2021/11/18 13:53:02;;;;;;;12.70;7.47;;;10.30;57.50;;;;;;4996803;28;20221;-79
2021/11/18 13:55:34;;;;;;;9.32;7.00;;;10.30;57.40;;;;;;5000200;28;20227;-79
2021/11/18 13:58:12;;;;;;;14.02;7.95;;;10.20;57.60;;;;;;4999671;28;20268;-80
2021/11/18 14:00:42;;;;;;;11.07;7.22;;;10.20;57.60;;;;;;4998049;28;20237;-80
2021/11/18 14:03:16;;;;;;;9.77;7.30;;;10.10;58.20;;;;;;4995346;28;20293;-79
2021/11/18 14:05:47;;;;;;;9.98;6.90;;;10.10;58.80;;;;;;4993949;28;20200;-80
2021/11/18 14:08:17;;;;;;;10.45;6.97;;;10.10;58.80;;;;;;4995517;28;20237;-80
2021/11/18 14:10:48;;;;;;;9.85;7.25;;;10.10;58.80;;;;;;4991185;28;20213;-80
2021/11/18 14:13:33;;;;;;;10.30;7.03;;;10.10;58.70;;;;;;4994881;28;20237;-80
2021/11/18 14:16:03;;;;;;;10.70;7.38;;;10.10;58.80;;;;;;4992076;28;20233;-80
2021/11/18 14:18:58;;;;;;;11.15;7.32;;;10.00;58.70;;;;;;4996700;28;20213;-81
2021/11/18 14:21:33;;;;;;;12.32;8.13;;;10.00;58.70;;;;;;4996605;28;20213;-80
2021/11/18 14:24:03;;;;;;;12.38;8.68;;;10.10;58.80;;;;;;4988055;28;20291;-79
2021/11/18 14:26:37;;;;;;;15.20;8.25;;;10.10;58.80;;;;;;4987968;28;20212;-81
2021/11/18 14:29:28;;;;;;;14.50;8.23;;;10.10;59.10;;;;;;4994441;28;20216;-80
2021/11/18 14:32:01;;;;;;;9.48;7.05;;;10.10;59.40;;;;;;4992642;28;20223;-80
2021/11/18 14:34:33;;;;;;;9.32;6.90;;;10.20;58.90;;;;;;4987066;28;20236;-79
2021/11/18 14:37:24;;;;;;;13.32;8.07;;;10.10;58.80;;;;;;4984735;28;20201;-80
2021/11/18 14:39:54;;;;;;;12.18;7.50;;;10.10;58.80;;;;;;4988259;28;20209;-80
2021/11/18 14:42:24;;;;;;;10.88;6.65;;;10.10;58.80;;;;;;4987748;28;20557;-80
2021/11/18 14:45:17;;;;;;;10.52;6.15;;;10.00;58.70;;;;;;4988711;28;20205;-79
2021/11/18 14:47:47;;;;;;;11.73;5.95;;;10.00;58.70;;;;;;4984484;28;20244;-79
2021/11/18 14:50:31;;;;;;;8.02;5.95;;;9.90;58.80;;;;;;4984717;28;20673;-79
2021/11/18 14:53:21;;;;;;;9.30;6.05;;;9.90;58.80;;;;;;4985133;28;20253;-80
2021/11/18 14:56:01;;;;;;;8.27;5.90;;;9.80;57.80;;;;;;4986898;28;20224;-79
2021/11/18 14:58:30;;;;;;;8.20;5.85;;;9.80;57.90;;;;;;4989161;28;20177;-80
2021/11/18 15:01:00;;;;;;;8.15;5.50;;;9.70;58.50;;;;;;4989229;28;20276;-79
2021/11/18 15:03:29;;;;;;;12.75;5.80;;;9.70;59.40;;;;;;4985542;28;20236;-79
2021/11/18 15:05:57;;;;;;;11.57;6.85;;;9.70;59.40;;;;;;4983796;28;20220;-82
2021/11/18 15:08:27;;;;;;;9.32;6.95;;;9.70;59.40;;;;;;4980603;28;20227;-82
2021/11/18 15:10:55;;;;;;;9.05;4.93;;;9.60;59.30;;;;;;4980533;28;20276;-79
2021/11/18 15:13:23;;;;;;;8.80;6.28;;;9.60;59.30;;;;;;4980516;28;20586;-79
2021/11/18 15:15:50;;;;;;;10.85;5.88;;;9.60;59.30;;;;;;4980382;28;20233;-79
2021/11/18 15:18:18;;;;;;;11.18;5.97;;;9.50;58.40;;;;;;4982268;28;20304;-79
2021/11/18 15:20:49;;;;;;;7.80;5.40;;;9.50;59.20;;;;;;4979848;28;20330;-80
2021/11/18 15:23:18;;;;;;;12.23;6.75;;;9.50;59.20;;;;;;4981280;28;20228;-81
2021/11/18 15:25:47;;;;;;;8.68;5.85;;;9.50;59.20;;;;;;4980204;28;20229;-80
2021/11/18 15:28:16;;;;;;;14.30;6.05;;;9.50;59.20;;;;;;4979508;28;20744;-80
2021/11/18 15:30:47;;;;;;;10.10;6.45;;;9.50;59.20;;;;;;4980024;28;20259;-79
2021/11/18 15:33:16;;;;;;;11.70;6.30;;;9.50;59.20;;;;;;4982412;28;20293;-82
2021/11/18 15:35:44;;;;;;;9.25;6.07;;;9.50;59.20;;;;;;4996246;28;20228;-79
2021/11/18 15:38:14;;;;;;;7.85;5.80;;;9.50;59.20;;;;;;4994721;28;20659;-80
2021/11/18 15:40:44;;;;;;;13.15;5.93;;;9.40;59.20;;;;;;4980823;28;20209;-79